sensor_id;sensor_type;location;lat;lon;timestamp;P1;durP1;ratioP1;P2;durP2;ratioP2
2646;SDS011;1333;50.958;6.770;2023-07-20T00:00:38;2.37;;;2.10;;
2646;SDS011;1333;50.958;6.770;2023-07-20T00:03:10;7.10;;;2.97;;
2646;SDS011;1333;50.958;6.770;2023-07-20T00:05:41;5.07;;;1.97;;
2646;SDS011;1333;50.958;6.770;2023-07-20T00:08:08;4.80;;;1.90;;
2646;SDS011;1333;50.958;6.770;2023-07-20T00:10:33;3.57;;;2.00;;
2646;SDS011;1333;50.958;6.770;2023-07-20T00:12:58;5.23;;;2.30;;
2646;SDS011;1333;50.958;6.770;2023-07-20T00:15:24;5.10;;;2.83;;
2646;SDS011;1333;50.958;6.770;2023-07-20T00:17:49;4.77;;;2.53;;
2646;SDS011;1333;50.958;6.770;2023-07-20T00:20:15;2.90;;;1.80;;
2646;SDS011;1333;50.958;6.770;2023-07-20T00:22:41;3.10;;;2.30;;
2646;SDS011;1333;50.958;6.770;2023-07-20T00:25:06;2.93;;;2.20;;
2646;SDS011;1333;50.958;6.770;2023-07-20T00:27:32;5.53;;;2.93;;
2646;SDS011;1333;50.958;6.770;2023-07-20T00:29:57;3.00;;;2.30;;
2646;SDS011;1333;50.958;6.770;2023-07-20T00:32:23;3.70;;;2.70;;
2646;SDS011;1333;50.958;6.770;2023-07-20T00:34:48;2.27;;;2.07;;
2646;SDS011;1333;50.958;6.770;2023-07-20T00:37:14;3.80;;;2.67;;
2646;SDS011;1333;50.958;6.770;2023-07-20T00:39:39;3.50;;;2.43;;
2646;SDS011;1333;50.958;6.770;2023-07-20T00:42:05;3.27;;;2.97;;
2646;SDS011;1333;50.958;6.770;2023-07-20T00:44:31;5.27;;;2.23;;
2646;SDS011;1333;50.958;6.770;2023-07-20T00:46:56;3.67;;;2.80;;
2646;SDS011;1333;50.958;6.770;2023-07-20T00:49:22;4.50;;;2.20;;
2646;SDS011;1333;50.958;6.770;2023-07-20T00:51:48;2.93;;;2.50;;
2646;SDS011;1333;50.958;6.770;2023-07-20T00:54:15;3.70;;;2.73;;
2646;SDS011;1333;50.958;6.770;2023-07-20T00:56:41;4.50;;;2.70;;
2646;SDS011;1333;50.958;6.770;2023-07-20T00:59:07;2.53;;;2.00;;
2646;SDS011;1333;50.958;6.770;2023-07-20T01:01:32;2.33;;;2.13;;
2646;SDS011;1333;50.958;6.770;2023-07-20T01:03:58;4.43;;;2.80;;
2646;SDS011;1333;50.958;6.770;2023-07-20T01:06:26;2.63;;;2.10;;
2646;SDS011;1333;50.958;6.770;2023-07-20T01:09:24;5.50;;;2.80;;
2646;SDS011;1333;50.958;6.770;2023-07-20T01:12:11;5.40;;;2.37;;
2646;SDS011;1333;50.958;6.770;2023-07-20T01:14:41;3.20;;;2.10;;
2646;SDS011;1333;50.958;6.770;2023-07-20T01:17:07;11.23;;;2.60;;
2646;SDS011;1333;50.958;6.770;2023-07-20T01:19:32;3.80;;;3.10;;
2646;SDS011;1333;50.958;6.770;2023-07-20T01:22:09;4.43;;;2.10;;
2646;SDS011;1333;50.958;6.770;2023-07-20T01:25:08;2.33;;;2.13;;
2646;SDS011;1333;50.958;6.770;2023-07-20T01:33:47;8.43;;;2.00;;
2646;SDS011;1333;50.958;6.770;2023-07-20T01:36:16;2.10;;;1.90;;
2646;SDS011;1333;50.958;6.770;2023-07-20T01:38:42;4.47;;;2.70;;
2646;SDS011;1333;50.958;6.770;2023-07-20T01:41:09;2.10;;;1.77;;
2646;SDS011;1333;50.958;6.770;2023-07-20T01:43:35;4.20;;;2.10;;
2646;SDS011;1333;50.958;6.770;2023-07-20T01:46:01;3.87;;;2.10;;
2646;SDS011;1333;50.958;6.770;2023-07-20T01:48:27;2.37;;;2.17;;
2646;SDS011;1333;50.958;6.770;2023-07-20T01:50:52;2.40;;;2.20;;
2646;SDS011;1333;50.958;6.770;2023-07-20T01:53:18;2.93;;;2.23;;
2646;SDS011;1333;50.958;6.770;2023-07-20T01:55:45;2.03;;;1.83;;
2646;SDS011;1333;50.958;6.770;2023-07-20T01:58:11;5.13;;;3.00;;
2646;SDS011;1333;50.958;6.770;2023-07-20T02:00:37;2.77;;;2.37;;
2646;SDS011;1333;50.958;6.770;2023-07-20T02:03:02;2.10;;;1.80;;
2646;SDS011;1333;50.958;6.770;2023-07-20T02:05:28;4.37;;;2.07;;
2646;SDS011;1333;50.958;6.770;2023-07-20T02:07:53;4.00;;;2.93;;
2646;SDS011;1333;50.958;6.770;2023-07-20T02:10:19;4.43;;;2.20;;
2646;SDS011;1333;50.958;6.770;2023-07-20T02:12:45;4.20;;;3.20;;
2646;SDS011;1333;50.958;6.770;2023-07-20T02:15:10;2.23;;;1.87;;
2646;SDS011;1333;50.958;6.770;2023-07-20T02:17:38;2.73;;;1.93;;
2646;SDS011;1333;50.958;6.770;2023-07-20T02:20:06;4.43;;;4.10;;
2646;SDS011;1333;50.958;6.770;2023-07-20T02:22:33;3.80;;;2.73;;
2646;SDS011;1333;50.958;6.770;2023-07-20T02:24:59;3.90;;;2.90;;
2646;SDS011;1333;50.958;6.770;2023-07-20T02:27:25;2.40;;;2.20;;
2646;SDS011;1333;50.958;6.770;2023-07-20T02:29:50;4.00;;;2.70;;
2646;SDS011;1333;50.958;6.770;2023-07-20T02:32:16;2.70;;;2.50;;
2646;SDS011;1333;50.958;6.770;2023-07-20T02:34:41;7.33;;;3.03;;
2646;SDS011;1333;50.958;6.770;2023-07-20T02:37:07;5.80;;;2.83;;
2646;SDS011;1333;50.958;6.770;2023-07-20T02:39:32;3.93;;;2.73;;
2646;SDS011;1333;50.958;6.770;2023-07-20T02:41:58;4.00;;;2.50;;
2646;SDS011;1333;50.958;6.770;2023-07-20T02:44:23;5.43;;;3.40;;
2646;SDS011;1333;50.958;6.770;2023-07-20T02:46:49;4.43;;;3.07;;
2646;SDS011;1333;50.958;6.770;2023-07-20T02:49:15;3.17;;;2.40;;
2646;SDS011;1333;50.958;6.770;2023-07-20T02:51:41;7.57;;;3.63;;
2646;SDS011;1333;50.958;6.770;2023-07-20T02:54:07;3.80;;;3.30;;
2646;SDS011;1333;50.958;6.770;2023-07-20T02:56:33;3.27;;;2.80;;
2646;SDS011;1333;50.958;6.770;2023-07-20T02:58:58;4.03;;;3.00;;
2646;SDS011;1333;50.958;6.770;2023-07-20T03:01:24;7.53;;;2.40;;
2646;SDS011;1333;50.958;6.770;2023-07-20T03:03:52;6.20;;;3.40;;
2646;SDS011;1333;50.958;6.770;2023-07-20T03:06:17;6.17;;;2.37;;
2646;SDS011;1333;50.958;6.770;2023-07-20T03:08:43;3.40;;;2.03;;
2646;SDS011;1333;50.958;6.770;2023-07-20T03:11:12;3.33;;;2.57;;
2646;SDS011;1333;50.958;6.770;2023-07-20T03:13:39;3.73;;;2.80;;
2646;SDS011;1333;50.958;6.770;2023-07-20T03:16:06;4.00;;;2.80;;
2646;SDS011;1333;50.958;6.770;2023-07-20T03:18:36;6.20;;;2.30;;
2646;SDS011;1333;50.958;6.770;2023-07-20T03:21:04;2.70;;;2.47;;
2646;SDS011;1333;50.958;6.770;2023-07-20T03:23:31;6.13;;;2.30;;
2646;SDS011;1333;50.958;6.770;2023-07-20T03:25:56;4.70;;;2.07;;
2646;SDS011;1333;50.958;6.770;2023-07-20T03:28:22;4.70;;;2.67;;
2646;SDS011;1333;50.958;6.770;2023-07-20T03:30:57;2.83;;;2.27;;
2646;SDS011;1333;50.958;6.770;2023-07-20T03:33:26;5.30;;;3.00;;
2646;SDS011;1333;50.958;6.770;2023-07-20T03:35:54;3.20;;;2.00;;
2646;SDS011;1333;50.958;6.770;2023-07-20T03:38:20;4.53;;;2.37;;
2646;SDS011;1333;50.958;6.770;2023-07-20T03:40:50;3.47;;;2.37;;
2646;SDS011;1333;50.958;6.770;2023-07-20T03:43:19;8.00;;;2.70;;
2646;SDS011;1333;50.958;6.770;2023-07-20T03:45:46;3.17;;;2.80;;
2646;SDS011;1333;50.958;6.770;2023-07-20T03:48:13;5.47;;;2.90;;
2646;SDS011;1333;50.958;6.770;2023-07-20T03:50:40;2.80;;;2.53;;
2646;SDS011;1333;50.958;6.770;2023-07-20T03:53:06;9.53;;;2.70;;
2646;SDS011;1333;50.958;6.770;2023-07-20T03:55:31;3.50;;;2.27;;
2646;SDS011;1333;50.958;6.770;2023-07-20T03:57:57;2.43;;;1.77;;
2646;SDS011;1333;50.958;6.770;2023-07-20T04:00:22;2.90;;;2.60;;
2646;SDS011;1333;50.958;6.770;2023-07-20T04:02:48;3.30;;;2.80;;
2646;SDS011;1333;50.958;6.770;2023-07-20T04:05:14;2.77;;;2.37;;
2646;SDS011;1333;50.958;6.770;2023-07-20T04:07:39;3.00;;;2.50;;
2646;SDS011;1333;50.958;6.770;2023-07-20T04:10:05;6.80;;;2.57;;
2646;SDS011;1333;50.958;6.770;2023-07-20T04:12:31;6.10;;;2.40;;
2646;SDS011;1333;50.958;6.770;2023-07-20T04:14:56;3.43;;;3.00;;
2646;SDS011;1333;50.958;6.770;2023-07-20T04:17:22;4.23;;;2.10;;
2646;SDS011;1333;50.958;6.770;2023-07-20T04:19:47;4.87;;;3.10;;
2646;SDS011;1333;50.958;6.770;2023-07-20T04:22:13;5.40;;;3.03;;
2646;SDS011;1333;50.958;6.770;2023-07-20T04:24:40;4.40;;;2.90;;
2646;SDS011;1333;50.958;6.770;2023-07-20T04:27:09;2.90;;;2.40;;
2646;SDS011;1333;50.958;6.770;2023-07-20T04:29:34;3.67;;;3.00;;
2646;SDS011;1333;50.958;6.770;2023-07-20T04:31:59;5.43;;;2.37;;
2646;SDS011;1333;50.958;6.770;2023-07-20T04:34:25;3.43;;;2.60;;
2646;SDS011;1333;50.958;6.770;2023-07-20T04:36:51;3.60;;;2.70;;
2646;SDS011;1333;50.958;6.770;2023-07-20T04:39:16;5.13;;;2.63;;
2646;SDS011;1333;50.958;6.770;2023-07-20T04:41:42;3.20;;;2.63;;
2646;SDS011;1333;50.958;6.770;2023-07-20T04:44:07;5.40;;;3.10;;
2646;SDS011;1333;50.958;6.770;2023-07-20T04:46:33;4.10;;;3.53;;
2646;SDS011;1333;50.958;6.770;2023-07-20T04:48:58;6.83;;;3.17;;
2646;SDS011;1333;50.958;6.770;2023-07-20T04:51:24;4.73;;;3.17;;
2646;SDS011;1333;50.958;6.770;2023-07-20T04:53:49;6.07;;;3.17;;
2646;SDS011;1333;50.958;6.770;2023-07-20T04:56:15;4.87;;;3.07;;
2646;SDS011;1333;50.958;6.770;2023-07-20T04:58:40;4.10;;;3.03;;
2646;SDS011;1333;50.958;6.770;2023-07-20T05:01:06;4.23;;;3.20;;
2646;SDS011;1333;50.958;6.770;2023-07-20T05:03:32;4.10;;;3.23;;
2646;SDS011;1333;50.958;6.770;2023-07-20T05:05:58;3.43;;;3.13;;
2646;SDS011;1333;50.958;6.770;2023-07-20T05:08:23;3.80;;;3.10;;
2646;SDS011;1333;50.958;6.770;2023-07-20T05:10:50;9.10;;;3.57;;
2646;SDS011;1333;50.958;6.770;2023-07-20T05:13:16;6.40;;;2.90;;
2646;SDS011;1333;50.958;6.770;2023-07-20T05:15:41;7.47;;;2.93;;
2646;SDS011;1333;50.958;6.770;2023-07-20T05:18:07;3.60;;;2.60;;
2646;SDS011;1333;50.958;6.770;2023-07-20T05:20:34;3.77;;;3.13;;
2646;SDS011;1333;50.958;6.770;2023-07-20T05:22:59;4.97;;;3.10;;
2646;SDS011;1333;50.958;6.770;2023-07-20T05:25:26;3.67;;;2.90;;
2646;SDS011;1333;50.958;6.770;2023-07-20T05:27:52;8.43;;;3.10;;
2646;SDS011;1333;50.958;6.770;2023-07-20T05:30:17;10.63;;;3.60;;
2646;SDS011;1333;50.958;6.770;2023-07-20T05:32:43;6.87;;;3.50;;
2646;SDS011;1333;50.958;6.770;2023-07-20T05:35:12;6.40;;;3.80;;
2646;SDS011;1333;50.958;6.770;2023-07-20T05:37:39;4.97;;;3.40;;
2646;SDS011;1333;50.958;6.770;2023-07-20T05:40:04;8.30;;;4.27;;
2646;SDS011;1333;50.958;6.770;2023-07-20T05:42:31;4.70;;;2.77;;
2646;SDS011;1333;50.958;6.770;2023-07-20T05:44:56;4.83;;;3.47;;
2646;SDS011;1333;50.958;6.770;2023-07-20T05:47:22;3.90;;;3.43;;
2646;SDS011;1333;50.958;6.770;2023-07-20T05:49:47;4.27;;;3.20;;
2646;SDS011;1333;50.958;6.770;2023-07-20T05:52:13;6.00;;;3.50;;
2646;SDS011;1333;50.958;6.770;2023-07-20T05:54:39;3.90;;;2.83;;
2646;SDS011;1333;50.958;6.770;2023-07-20T05:57:04;6.20;;;4.37;;
2646;SDS011;1333;50.958;6.770;2023-07-20T05:59:30;6.20;;;4.10;;
2646;SDS011;1333;50.958;6.770;2023-07-20T06:01:56;5.30;;;4.23;;
2646;SDS011;1333;50.958;6.770;2023-07-20T06:04:22;13.50;;;4.40;;
2646;SDS011;1333;50.958;6.770;2023-07-20T06:06:47;7.13;;;5.47;;
2646;SDS011;1333;50.958;6.770;2023-07-20T06:09:13;10.30;;;5.50;;
2646;SDS011;1333;50.958;6.770;2023-07-20T06:11:39;6.67;;;5.40;;
2646;SDS011;1333;50.958;6.770;2023-07-20T06:14:04;11.23;;;5.40;;
2646;SDS011;1333;50.958;6.770;2023-07-20T06:16:30;7.43;;;5.30;;
2646;SDS011;1333;50.958;6.770;2023-07-20T06:18:56;6.17;;;5.57;;
2646;SDS011;1333;50.958;6.770;2023-07-20T06:21:21;6.13;;;4.63;;
2646;SDS011;1333;50.958;6.770;2023-07-20T06:23:47;8.10;;;5.77;;
2646;SDS011;1333;50.958;6.770;2023-07-20T06:26:13;7.90;;;5.20;;
2646;SDS011;1333;50.958;6.770;2023-07-20T06:28:38;5.43;;;4.30;;
2646;SDS011;1333;50.958;6.770;2023-07-20T06:31:04;8.93;;;4.47;;
2646;SDS011;1333;50.958;6.770;2023-07-20T06:33:29;5.70;;;4.70;;
2646;SDS011;1333;50.958;6.770;2023-07-20T06:35:55;4.50;;;3.83;;
2646;SDS011;1333;50.958;6.770;2023-07-20T06:38:23;7.43;;;4.50;;
2646;SDS011;1333;50.958;6.770;2023-07-20T06:40:49;4.93;;;4.43;;
2646;SDS011;1333;50.958;6.770;2023-07-20T06:43:15;4.93;;;4.53;;
2646;SDS011;1333;50.958;6.770;2023-07-20T06:45:41;5.67;;;5.13;;
2646;SDS011;1333;50.958;6.770;2023-07-20T06:48:06;7.23;;;5.23;;
2646;SDS011;1333;50.958;6.770;2023-07-20T06:50:32;9.67;;;5.57;;
2646;SDS011;1333;50.958;6.770;2023-07-20T06:52:58;7.40;;;5.70;;
2646;SDS011;1333;50.958;6.770;2023-07-20T06:55:24;5.87;;;5.43;;
2646;SDS011;1333;50.958;6.770;2023-07-20T06:57:51;9.83;;;5.40;;
2646;SDS011;1333;50.958;6.770;2023-07-20T07:00:16;6.67;;;4.80;;
2646;SDS011;1333;50.958;6.770;2023-07-20T07:02:42;6.37;;;4.80;;
2646;SDS011;1333;50.958;6.770;2023-07-20T07:05:08;5.83;;;5.23;;
2646;SDS011;1333;50.958;6.770;2023-07-20T07:07:34;5.40;;;4.87;;
2646;SDS011;1333;50.958;6.770;2023-07-20T07:10:00;5.70;;;4.07;;
2646;SDS011;1333;50.958;6.770;2023-07-20T07:12:29;4.60;;;3.47;;
2646;SDS011;1333;50.958;6.770;2023-07-20T07:14:55;7.27;;;4.57;;
2646;SDS011;1333;50.958;6.770;2023-07-20T07:17:20;4.87;;;4.20;;
2646;SDS011;1333;50.958;6.770;2023-07-20T07:19:46;7.50;;;4.03;;
2646;SDS011;1333;50.958;6.770;2023-07-20T07:22:11;4.77;;;4.03;;
2646;SDS011;1333;50.958;6.770;2023-07-20T07:24:37;4.03;;;3.63;;
2646;SDS011;1333;50.958;6.770;2023-07-20T07:27:02;6.13;;;3.60;;
2646;SDS011;1333;50.958;6.770;2023-07-20T07:29:28;4.90;;;4.50;;
2646;SDS011;1333;50.958;6.770;2023-07-20T07:31:54;10.30;;;7.43;;
2646;SDS011;1333;50.958;6.770;2023-07-20T07:34:20;5.63;;;3.87;;
2646;SDS011;1333;50.958;6.770;2023-07-20T07:36:45;4.00;;;3.70;;
2646;SDS011;1333;50.958;6.770;2023-07-20T07:39:12;3.80;;;3.40;;
2646;SDS011;1333;50.958;6.770;2023-07-20T07:41:37;4.13;;;3.70;;
2646;SDS011;1333;50.958;6.770;2023-07-20T07:44:03;4.70;;;3.67;;
2646;SDS011;1333;50.958;6.770;2023-07-20T07:46:28;4.07;;;3.70;;
2646;SDS011;1333;50.958;6.770;2023-07-20T07:48:54;4.43;;;3.10;;
2646;SDS011;1333;50.958;6.770;2023-07-20T07:51:19;5.60;;;3.70;;
2646;SDS011;1333;50.958;6.770;2023-07-20T07:53:45;5.17;;;3.33;;
2646;SDS011;1333;50.958;6.770;2023-07-20T07:56:11;4.63;;;3.73;;
2646;SDS011;1333;50.958;6.770;2023-07-20T07:58:37;3.77;;;3.47;;
2646;SDS011;1333;50.958;6.770;2023-07-20T08:01:03;2.67;;;2.30;;
2646;SDS011;1333;50.958;6.770;2023-07-20T08:03:29;2.70;;;2.40;;
2646;SDS011;1333;50.958;6.770;2023-07-20T08:05:54;3.30;;;2.53;;
2646;SDS011;1333;50.958;6.770;2023-07-20T08:08:20;3.00;;;2.50;;
2646;SDS011;1333;50.958;6.770;2023-07-20T08:10:46;3.40;;;2.60;;
2646;SDS011;1333;50.958;6.770;2023-07-20T08:13:12;4.40;;;3.70;;
2646;SDS011;1333;50.958;6.770;2023-07-20T08:15:38;3.20;;;2.90;;
2646;SDS011;1333;50.958;6.770;2023-07-20T08:18:04;2.73;;;2.47;;
2646;SDS011;1333;50.958;6.770;2023-07-20T08:20:30;2.57;;;2.37;;
2646;SDS011;1333;50.958;6.770;2023-07-20T08:22:57;5.50;;;2.40;;
2646;SDS011;1333;50.958;6.770;2023-07-20T08:25:24;4.30;;;3.90;;
2646;SDS011;1333;50.958;6.770;2023-07-20T08:27:50;2.43;;;2.23;;
2646;SDS011;1333;50.958;6.770;2023-07-20T08:30:16;2.20;;;2.00;;
2646;SDS011;1333;50.958;6.770;2023-07-20T08:32:42;2.93;;;2.70;;
2646;SDS011;1333;50.958;6.770;2023-07-20T08:35:07;3.23;;;2.43;;
2646;SDS011;1333;50.958;6.770;2023-07-20T08:37:33;2.93;;;2.73;;
2646;SDS011;1333;50.958;6.770;2023-07-20T08:39:59;2.80;;;2.60;;
2646;SDS011;1333;50.958;6.770;2023-07-20T08:42:24;4.23;;;3.83;;
2646;SDS011;1333;50.958;6.770;2023-07-20T08:44:51;3.07;;;2.87;;
2646;SDS011;1333;50.958;6.770;2023-07-20T08:47:18;2.20;;;2.10;;
2646;SDS011;1333;50.958;6.770;2023-07-20T08:49:45;2.93;;;2.43;;
2646;SDS011;1333;50.958;6.770;2023-07-20T08:52:13;5.60;;;2.50;;
2646;SDS011;1333;50.958;6.770;2023-07-20T08:54:39;3.10;;;2.10;;
2646;SDS011;1333;50.958;6.770;2023-07-20T08:57:05;4.40;;;2.10;;
2646;SDS011;1333;50.958;6.770;2023-07-20T08:59:32;2.73;;;2.40;;
2646;SDS011;1333;50.958;6.770;2023-07-20T09:02:01;2.30;;;2.10;;
2646;SDS011;1333;50.958;6.770;2023-07-20T09:04:29;3.47;;;2.60;;
2646;SDS011;1333;50.958;6.770;2023-07-20T09:06:55;1.80;;;1.70;;
2646;SDS011;1333;50.958;6.770;2023-07-20T09:09:21;1.90;;;1.80;;
2646;SDS011;1333;50.958;6.770;2023-07-20T09:11:47;2.17;;;1.97;;
2646;SDS011;1333;50.958;6.770;2023-07-20T09:14:14;2.50;;;1.80;;
2646;SDS011;1333;50.958;6.770;2023-07-20T09:16:53;2.63;;;1.73;;
2646;SDS011;1333;50.958;6.770;2023-07-20T09:19:19;1.87;;;1.77;;
2646;SDS011;1333;50.958;6.770;2023-07-20T09:21:45;2.00;;;1.90;;
2646;SDS011;1333;50.958;6.770;2023-07-20T09:24:12;2.40;;;1.90;;
2646;SDS011;1333;50.958;6.770;2023-07-20T09:26:41;2.43;;;2.23;;
2646;SDS011;1333;50.958;6.770;2023-07-20T09:29:10;2.20;;;1.60;;
2646;SDS011;1333;50.958;6.770;2023-07-20T09:31:36;1.80;;;1.70;;
2646;SDS011;1333;50.958;6.770;2023-07-20T09:34:03;1.80;;;1.70;;
2646;SDS011;1333;50.958;6.770;2023-07-20T09:36:31;1.80;;;1.70;;
2646;SDS011;1333;50.958;6.770;2023-07-20T09:38:59;1.63;;;1.50;;
2646;SDS011;1333;50.958;6.770;2023-07-20T09:41:25;2.20;;;1.83;;
2646;SDS011;1333;50.958;6.770;2023-07-20T09:43:51;2.00;;;1.80;;
2646;SDS011;1333;50.958;6.770;2023-07-20T09:46:18;1.87;;;1.50;;
2646;SDS011;1333;50.958;6.770;2023-07-20T09:48:53;3.00;;;2.80;;
2646;SDS011;1333;50.958;6.770;2023-07-20T09:51:21;1.67;;;1.57;;
2646;SDS011;1333;50.958;6.770;2023-07-20T09:53:48;4.00;;;1.97;;
2646;SDS011;1333;50.958;6.770;2023-07-20T09:56:16;3.80;;;1.70;;
2646;SDS011;1333;50.958;6.770;2023-07-20T09:58:44;4.30;;;1.83;;
2646;SDS011;1333;50.958;6.770;2023-07-20T10:01:11;2.17;;;1.97;;
2646;SDS011;1333;50.958;6.770;2023-07-20T10:03:39;2.10;;;2.00;;
2646;SDS011;1333;50.958;6.770;2023-07-20T10:06:09;3.30;;;2.50;;
2646;SDS011;1333;50.958;6.770;2023-07-20T10:08:41;7.37;;;6.40;;
2646;SDS011;1333;50.958;6.770;2023-07-20T10:11:08;2.30;;;2.10;;
2646;SDS011;1333;50.958;6.770;2023-07-20T10:13:37;1.97;;;1.50;;
2646;SDS011;1333;50.958;6.770;2023-07-20T10:16:07;2.67;;;1.90;;
2646;SDS011;1333;50.958;6.770;2023-07-20T10:18:44;2.27;;;1.60;;
2646;SDS011;1333;50.958;6.770;2023-07-20T10:21:15;2.00;;;1.90;;
2646;SDS011;1333;50.958;6.770;2023-07-20T10:23:47;2.17;;;1.90;;
2646;SDS011;1333;50.958;6.770;2023-07-20T10:26:13;1.50;;;1.40;;
2646;SDS011;1333;50.958;6.770;2023-07-20T10:28:39;1.67;;;1.53;;
2646;SDS011;1333;50.958;6.770;2023-07-20T10:31:07;2.27;;;1.67;;
2646;SDS011;1333;50.958;6.770;2023-07-20T10:33:34;1.80;;;1.70;;
2646;SDS011;1333;50.958;6.770;2023-07-20T10:36:02;1.90;;;1.27;;
2646;SDS011;1333;50.958;6.770;2023-07-20T10:43:47;1.70;;;1.50;;
2646;SDS011;1333;50.958;6.770;2023-07-20T10:46:13;2.17;;;1.80;;
2646;SDS011;1333;50.958;6.770;2023-07-20T10:51:27;1.53;;;1.43;;
2646;SDS011;1333;50.958;6.770;2023-07-20T10:53:54;2.10;;;1.90;;
2646;SDS011;1333;50.958;6.770;2023-07-20T10:56:25;1.40;;;1.30;;
2646;SDS011;1333;50.958;6.770;2023-07-20T10:58:59;1.50;;;1.40;;
2646;SDS011;1333;50.958;6.770;2023-07-20T11:01:29;1.90;;;1.80;;
2646;SDS011;1333;50.958;6.770;2023-07-20T11:03:57;1.63;;;1.53;;
2646;SDS011;1333;50.958;6.770;2023-07-20T11:08:56;3.30;;;1.50;;
2646;SDS011;1333;50.958;6.770;2023-07-20T11:11:36;1.60;;;1.50;;
2646;SDS011;1333;50.958;6.770;2023-07-20T11:14:04;1.83;;;1.60;;
2646;SDS011;1333;50.958;6.770;2023-07-20T11:16:34;3.20;;;1.80;;
2646;SDS011;1333;50.958;6.770;2023-07-20T11:19:04;1.63;;;1.53;;
2646;SDS011;1333;50.958;6.770;2023-07-20T11:21:35;2.33;;;1.70;;
2646;SDS011;1333;50.958;6.770;2023-07-20T11:24:03;1.83;;;1.57;;
2646;SDS011;1333;50.958;6.770;2023-07-20T11:26:29;2.53;;;2.30;;
2646;SDS011;1333;50.958;6.770;2023-07-20T11:28:55;3.00;;;2.80;;
2646;SDS011;1333;50.958;6.770;2023-07-20T11:31:21;2.60;;;2.07;;
2646;SDS011;1333;50.958;6.770;2023-07-20T11:33:46;1.97;;;1.80;;
2646;SDS011;1333;50.958;6.770;2023-07-20T11:36:12;1.63;;;1.53;;
2646;SDS011;1333;50.958;6.770;2023-07-20T11:38:40;1.63;;;1.53;;
2646;SDS011;1333;50.958;6.770;2023-07-20T11:41:08;1.67;;;1.57;;
2646;SDS011;1333;50.958;6.770;2023-07-20T11:43:33;2.90;;;1.40;;
2646;SDS011;1333;50.958;6.770;2023-07-20T11:45:59;1.50;;;1.40;;
2646;SDS011;1333;50.958;6.770;2023-07-20T11:48:25;1.47;;;1.20;;
2646;SDS011;1333;50.958;6.770;2023-07-20T11:50:51;2.67;;;1.40;;
2646;SDS011;1333;50.958;6.770;2023-07-20T11:53:16;1.70;;;1.37;;
2646;SDS011;1333;50.958;6.770;2023-07-20T11:55:42;1.13;;;1.03;;
2646;SDS011;1333;50.958;6.770;2023-07-20T11:58:10;1.67;;;1.57;;
2646;SDS011;1333;50.958;6.770;2023-07-20T12:00:37;1.40;;;1.30;;
2646;SDS011;1333;50.958;6.770;2023-07-20T12:03:06;2.03;;;1.40;;
2646;SDS011;1333;50.958;6.770;2023-07-20T12:05:32;1.33;;;1.13;;
2646;SDS011;1333;50.958;6.770;2023-07-20T12:07:58;1.73;;;1.37;;
2646;SDS011;1333;50.958;6.770;2023-07-20T12:10:27;1.47;;;1.30;;
2646;SDS011;1333;50.958;6.770;2023-07-20T12:12:53;1.73;;;1.50;;
2646;SDS011;1333;50.958;6.770;2023-07-20T12:15:20;3.00;;;1.57;;
2646;SDS011;1333;50.958;6.770;2023-07-20T12:17:51;2.00;;;1.83;;
2646;SDS011;1333;50.958;6.770;2023-07-20T12:20:30;2.23;;;1.70;;
2646;SDS011;1333;50.958;6.770;2023-07-20T12:23:19;1.50;;;1.40;;
2646;SDS011;1333;50.958;6.770;2023-07-20T12:25:45;1.57;;;1.47;;
2646;SDS011;1333;50.958;6.770;2023-07-20T12:28:13;3.50;;;1.30;;
2646;SDS011;1333;50.958;6.770;2023-07-20T12:30:41;4.20;;;3.50;;
2646;SDS011;1333;50.958;6.770;2023-07-20T12:33:07;2.33;;;2.10;;
2646;SDS011;1333;50.958;6.770;2023-07-20T12:35:33;1.57;;;1.40;;
2646;SDS011;1333;50.958;6.770;2023-07-20T12:37:59;3.33;;;1.40;;
2646;SDS011;1333;50.958;6.770;2023-07-20T12:40:25;2.07;;;1.33;;
2646;SDS011;1333;50.958;6.770;2023-07-20T12:42:51;1.60;;;1.50;;
2646;SDS011;1333;50.958;6.770;2023-07-20T12:45:16;2.20;;;1.30;;
2646;SDS011;1333;50.958;6.770;2023-07-20T12:47:42;1.53;;;1.37;;
2646;SDS011;1333;50.958;6.770;2023-07-20T12:50:09;1.30;;;1.20;;
2646;SDS011;1333;50.958;6.770;2023-07-20T12:52:37;1.73;;;1.23;;
2646;SDS011;1333;50.958;6.770;2023-07-20T12:55:05;1.73;;;1.63;;
2646;SDS011;1333;50.958;6.770;2023-07-20T12:57:33;2.90;;;1.53;;
2646;SDS011;1333;50.958;6.770;2023-07-20T12:59:59;1.40;;;1.20;;
2646;SDS011;1333;50.958;6.770;2023-07-20T13:02:26;1.40;;;1.30;;
2646;SDS011;1333;50.958;6.770;2023-07-20T13:04:52;2.13;;;1.60;;
2646;SDS011;1333;50.958;6.770;2023-07-20T13:07:18;2.37;;;1.40;;
2646;SDS011;1333;50.958;6.770;2023-07-20T13:09:55;1.60;;;1.50;;
2646;SDS011;1333;50.958;6.770;2023-07-20T13:12:21;1.70;;;1.60;;
2646;SDS011;1333;50.958;6.770;2023-07-20T13:14:47;1.53;;;1.43;;
2646;SDS011;1333;50.958;6.770;2023-07-20T13:17:12;1.73;;;1.60;;
2646;SDS011;1333;50.958;6.770;2023-07-20T13:19:38;1.60;;;1.47;;
2646;SDS011;1333;50.958;6.770;2023-07-20T13:22:03;2.23;;;1.70;;
2646;SDS011;1333;50.958;6.770;2023-07-20T13:24:29;1.73;;;1.63;;
2646;SDS011;1333;50.958;6.770;2023-07-20T13:26:55;1.50;;;1.20;;
2646;SDS011;1333;50.958;6.770;2023-07-20T13:29:20;8.30;;;2.97;;
2646;SDS011;1333;50.958;6.770;2023-07-20T13:31:46;2.30;;;1.50;;
2646;SDS011;1333;50.958;6.770;2023-07-20T13:34:11;2.23;;;1.50;;
2646;SDS011;1333;50.958;6.770;2023-07-20T13:36:37;1.70;;;1.20;;
2646;SDS011;1333;50.958;6.770;2023-07-20T13:39:02;1.47;;;1.37;;
2646;SDS011;1333;50.958;6.770;2023-07-20T13:41:29;2.33;;;1.57;;
2646;SDS011;1333;50.958;6.770;2023-07-20T13:43:57;1.37;;;1.27;;
2646;SDS011;1333;50.958;6.770;2023-07-20T13:46:22;2.20;;;2.00;;
2646;SDS011;1333;50.958;6.770;2023-07-20T13:48:48;3.33;;;3.03;;
2646;SDS011;1333;50.958;6.770;2023-07-20T13:51:14;2.70;;;1.80;;
2646;SDS011;1333;50.958;6.770;2023-07-20T13:53:39;1.47;;;1.37;;
2646;SDS011;1333;50.958;6.770;2023-07-20T13:56:05;1.50;;;1.40;;
2646;SDS011;1333;50.958;6.770;2023-07-20T13:58:31;1.63;;;1.23;;
2646;SDS011;1333;50.958;6.770;2023-07-20T14:00:57;1.50;;;1.40;;
2646;SDS011;1333;50.958;6.770;2023-07-20T14:03:23;2.43;;;1.30;;
2646;SDS011;1333;50.958;6.770;2023-07-20T14:05:49;2.30;;;1.37;;
2646;SDS011;1333;50.958;6.770;2023-07-20T14:08:15;2.33;;;1.87;;
2646;SDS011;1333;50.958;6.770;2023-07-20T14:10:40;10.67;;;9.10;;
2646;SDS011;1333;50.958;6.770;2023-07-20T14:13:06;9.20;;;8.03;;
2646;SDS011;1333;50.958;6.770;2023-07-20T14:15:31;2.30;;;2.10;;
2646;SDS011;1333;50.958;6.770;2023-07-20T14:17:58;1.53;;;1.23;;
2646;SDS011;1333;50.958;6.770;2023-07-20T14:20:23;3.23;;;1.40;;
2646;SDS011;1333;50.958;6.770;2023-07-20T14:22:49;1.20;;;1.07;;
2646;SDS011;1333;50.958;6.770;2023-07-20T14:25:15;1.50;;;1.33;;
2646;SDS011;1333;50.958;6.770;2023-07-20T14:27:41;1.70;;;1.40;;
2646;SDS011;1333;50.958;6.770;2023-07-20T14:30:06;3.10;;;2.20;;
2646;SDS011;1333;50.958;6.770;2023-07-20T14:32:33;1.60;;;1.47;;
2646;SDS011;1333;50.958;6.770;2023-07-20T14:34:59;1.43;;;1.13;;
2646;SDS011;1333;50.958;6.770;2023-07-20T14:37:25;2.40;;;1.60;;
2646;SDS011;1333;50.958;6.770;2023-07-20T14:39:50;5.20;;;2.00;;
2646;SDS011;1333;50.958;6.770;2023-07-20T14:42:16;3.00;;;1.80;;
2646;SDS011;1333;50.958;6.770;2023-07-20T14:44:43;1.47;;;1.37;;
2646;SDS011;1333;50.958;6.770;2023-07-20T14:47:08;1.77;;;1.50;;
2646;SDS011;1333;50.958;6.770;2023-07-20T14:49:33;1.77;;;1.47;;
2646;SDS011;1333;50.958;6.770;2023-07-20T14:51:59;1.57;;;1.33;;
2646;SDS011;1333;50.958;6.770;2023-07-20T14:54:25;1.67;;;1.50;;
2646;SDS011;1333;50.958;6.770;2023-07-20T14:56:51;2.03;;;1.40;;
2646;SDS011;1333;50.958;6.770;2023-07-20T14:59:17;1.63;;;1.50;;
2646;SDS011;1333;50.958;6.770;2023-07-20T15:01:44;1.37;;;1.27;;
2646;SDS011;1333;50.958;6.770;2023-07-20T15:04:15;2.23;;;1.43;;
2646;SDS011;1333;50.958;6.770;2023-07-20T15:06:41;1.70;;;1.60;;
2646;SDS011;1333;50.958;6.770;2023-07-20T15:09:07;1.47;;;1.37;;
2646;SDS011;1333;50.958;6.770;2023-07-20T15:11:33;1.10;;;1.00;;
2646;SDS011;1333;50.958;6.770;2023-07-20T15:13:59;1.47;;;1.37;;
2646;SDS011;1333;50.958;6.770;2023-07-20T15:16:25;1.73;;;1.63;;
2646;SDS011;1333;50.958;6.770;2023-07-20T15:18:50;1.80;;;1.70;;
2646;SDS011;1333;50.958;6.770;2023-07-20T15:21:16;1.60;;;1.50;;
2646;SDS011;1333;50.958;6.770;2023-07-20T15:23:44;1.50;;;1.40;;
2646;SDS011;1333;50.958;6.770;2023-07-20T15:26:10;1.50;;;1.40;;
2646;SDS011;1333;50.958;6.770;2023-07-20T15:28:36;1.57;;;1.47;;